sensor_id;sensor_type;location;lat;lon;timestamp;temperature;humidity
47590;DHT22;33316;52.298;9.056;2022-12-18T00:01:29;-2.20;82.40
47590;DHT22;33316;52.298;9.056;2022-12-18T00:03:56;-2.20;82.40
47590;DHT22;33316;52.298;9.056;2022-12-18T00:06:25;-2.30;82.30
47590;DHT22;33316;52.298;9.056;2022-12-18T00:08:53;-2.20;82.40
47590;DHT22;33316;52.298;9.056;2022-12-18T00:11:21;-2.30;82.30
47590;DHT22;33316;52.298;9.056;2022-12-18T00:13:50;-2.30;82.20
47590;DHT22;33316;52.298;9.056;2022-12-18T00:16:19;-2.30;82.30
47590;DHT22;33316;52.298;9.056;2022-12-18T00:18:46;-2.30;82.20
47590;DHT22;33316;52.298;9.056;2022-12-18T00:21:14;-2.30;82.20
47590;DHT22;33316;52.298;9.056;2022-12-18T00:23:43;-2.30;82.30
47590;DHT22;33316;52.298;9.056;2022-12-18T00:26:16;-2.30;82.20
47590;DHT22;33316;52.298;9.056;2022-12-18T00:28:44;-2.30;82.20
47590;DHT22;33316;52.298;9.056;2022-12-18T00:31:15;-2.30;82.20
47590;DHT22;33316;52.298;9.056;2022-12-18T00:33:42;-2.30;82.20
47590;DHT22;33316;52.298;9.056;2022-12-18T00:36:11;-2.30;82.20
47590;DHT22;33316;52.298;9.056;2022-12-18T00:38:39;-2.30;82.20
47590;DHT22;33316;52.298;9.056;2022-12-18T00:41:07;-2.30;82.20
47590;DHT22;33316;52.298;9.056;2022-12-18T00:43:34;-2.30;82.20
47590;DHT22;33316;52.298;9.056;2022-12-18T00:46:00;-2.30;82.20
47590;DHT22;33316;52.298;9.056;2022-12-18T00:48:28;-2.40;82.10
47590;DHT22;33316;52.298;9.056;2022-12-18T00:50:55;-2.30;82.20
47590;DHT22;33316;52.298;9.056;2022-12-18T00:53:22;-2.40;82.10
47590;DHT22;33316;52.298;9.056;2022-12-18T00:55:49;-2.40;82.10
47590;DHT22;33316;52.298;9.056;2022-12-18T00:58:17;-2.40;82.10
47590;DHT22;33316;52.298;9.056;2022-12-18T01:00:44;-2.40;82.10
47590;DHT22;33316;52.298;9.056;2022-12-18T01:03:13;-2.40;82.10
47590;DHT22;33316;52.298;9.056;2022-12-18T01:05:42;-2.40;82.10
47590;DHT22;33316;52.298;9.056;2022-12-18T01:08:09;-2.40;82.10
47590;DHT22;33316;52.298;9.056;2022-12-18T01:10:36;-2.50;82.00
47590;DHT22;33316;52.298;9.056;2022-12-18T01:13:02;-2.40;82.20
47590;DHT22;33316;52.298;9.056;2022-12-18T01:15:29;-2.50;82.10
47590;DHT22;33316;52.298;9.056;2022-12-18T01:17:56;-2.50;82.10
47590;DHT22;33316;52.298;9.056;2022-12-18T01:20:23;-2.50;82.10
47590;DHT22;33316;52.298;9.056;2022-12-18T01:22:51;-2.50;82.10
47590;DHT22;33316;52.298;9.056;2022-12-18T01:25:18;-2.50;82.10
47590;DHT22;33316;52.298;9.056;2022-12-18T01:27:45;-2.50;82.20
47590;DHT22;33316;52.298;9.056;2022-12-18T01:30:12;-2.50;82.20
47590;DHT22;33316;52.298;9.056;2022-12-18T01:32:39;-2.60;82.20
47590;DHT22;33316;52.298;9.056;2022-12-18T01:35:06;-2.50;82.20
47590;DHT22;33316;52.298;9.056;2022-12-18T01:37:33;-2.60;82.20
47590;DHT22;33316;52.298;9.056;2022-12-18T01:40:02;-2.60;82.20
47590;DHT22;33316;52.298;9.056;2022-12-18T01:42:29;-2.60;82.20
47590;DHT22;33316;52.298;9.056;2022-12-18T01:45:02;-2.60;83.00
47590;DHT22;33316;52.298;9.056;2022-12-18T01:47:33;-2.60;82.20
47590;DHT22;33316;52.298;9.056;2022-12-18T01:50:02;-2.60;82.20
47590;DHT22;33316;52.298;9.056;2022-12-18T01:52:32;-2.60;82.20
47590;DHT22;33316;52.298;9.056;2022-12-18T01:54:59;-2.60;82.10
47590;DHT22;33316;52.298;9.056;2022-12-18T01:57:28;-2.60;82.10
47590;DHT22;33316;52.298;9.056;2022-12-18T01:59:59;-2.60;82.10
47590;DHT22;33316;52.298;9.056;2022-12-18T02:02:28;-2.60;82.10
47590;DHT22;33316;52.298;9.056;2022-12-18T02:04:55;-2.70;82.00
47590;DHT22;33316;52.298;9.056;2022-12-18T02:07:28;-2.70;82.10
47590;DHT22;33316;52.298;9.056;2022-12-18T02:10:02;-2.70;82.10
47590;DHT22;33316;52.298;9.056;2022-12-18T02:12:36;-2.70;82.00
47590;DHT22;33316;52.298;9.056;2022-12-18T02:15:12;-2.70;81.90
47590;DHT22;33316;52.298;9.056;2022-12-18T02:17:40;-2.80;81.70
47590;DHT22;33316;52.298;9.056;2022-12-18T02:20:14;-2.80;81.40
47590;DHT22;33316;52.298;9.056;2022-12-18T02:22:51;-2.80;81.40
47590;DHT22;33316;52.298;9.056;2022-12-18T02:25:28;-2.80;81.40
47590;DHT22;33316;52.298;9.056;2022-12-18T02:28:00;-2.90;81.40
47590;DHT22;33316;52.298;9.056;2022-12-18T02:30:31;-2.90;81.60
47590;DHT22;33316;52.298;9.056;2022-12-18T02:33:01;-2.90;81.80
47590;DHT22;33316;52.298;9.056;2022-12-18T02:35:30;-2.90;81.90
47590;DHT22;33316;52.298;9.056;2022-12-18T02:37:58;-2.90;82.00
47590;DHT22;33316;52.298;9.056;2022-12-18T02:40:27;-2.90;82.00
47590;DHT22;33316;52.298;9.056;2022-12-18T02:42:54;-2.90;82.10
47590;DHT22;33316;52.298;9.056;2022-12-18T02:45:23;-2.90;82.20
47590;DHT22;33316;52.298;9.056;2022-12-18T02:47:50;-3.00;82.20
47590;DHT22;33316;52.298;9.056;2022-12-18T02:50:22;-2.90;82.30
47590;DHT22;33316;52.298;9.056;2022-12-18T02:52:58;-2.90;82.40
47590;DHT22;33316;52.298;9.056;2022-12-18T02:55:39;-2.90;82.40
47590;DHT22;33316;52.298;9.056;2022-12-18T02:58:14;-2.90;82.40
47590;DHT22;33316;52.298;9.056;2022-12-18T03:00:48;-3.00;81.80
47590;DHT22;33316;52.298;9.056;2022-12-18T03:03:19;-3.10;81.30
47590;DHT22;33316;52.298;9.056;2022-12-18T03:05:52;-3.10;81.30
47590;DHT22;33316;52.298;9.056;2022-12-18T03:08:22;-3.10;81.50
47590;DHT22;33316;52.298;9.056;2022-12-18T03:10:53;-3.20;81.50
47590;DHT22;33316;52.298;9.056;2022-12-18T03:13:26;-3.20;81.50
47590;DHT22;33316;52.298;9.056;2022-12-18T03:15:56;-3.20;81.70
47590;DHT22;33316;52.298;9.056;2022-12-18T03:18:27;-3.20;81.80
47590;DHT22;33316;52.298;9.056;2022-12-18T03:20:58;-3.20;81.70
47590;DHT22;33316;52.298;9.056;2022-12-18T03:23:29;-3.30;81.50
47590;DHT22;33316;52.298;9.056;2022-12-18T03:26:01;-3.30;81.30
47590;DHT22;33316;52.298;9.056;2022-12-18T03:28:32;-3.40;81.10
47590;DHT22;33316;52.298;9.056;2022-12-18T03:31:04;-3.40;81.30
47590;DHT22;33316;52.298;9.056;2022-12-18T03:33:35;-3.40;81.70
47590;DHT22;33316;52.298;9.056;2022-12-18T03:36:04;-3.40;82.00
47590;DHT22;33316;52.298;9.056;2022-12-18T03:38:31;-3.30;82.20
47590;DHT22;33316;52.298;9.056;2022-12-18T03:41:02;-3.30;82.30
47590;DHT22;33316;52.298;9.056;2022-12-18T03:43:37;-3.30;82.40
47590;DHT22;33316;52.298;9.056;2022-12-18T03:46:14;-3.30;82.60
47590;DHT22;33316;52.298;9.056;2022-12-18T03:48:45;-3.20;82.70
47590;DHT22;33316;52.298;9.056;2022-12-18T03:51:17;-3.20;82.80
47590;DHT22;33316;52.298;9.056;2022-12-18T03:53:46;-3.20;82.90
47590;DHT22;33316;52.298;9.056;2022-12-18T03:56:16;-3.20;83.00
47590;DHT22;33316;52.298;9.056;2022-12-18T03:58:44;-3.20;82.90
47590;DHT22;33316;52.298;9.056;2022-12-18T04:01:15;-3.20;83.00
47590;DHT22;33316;52.298;9.056;2022-12-18T04:03:44;-3.20;83.00
47590;DHT22;33316;52.298;9.056;2022-12-18T04:06:14;-3.10;83.10
47590;DHT22;33316;52.298;9.056;2022-12-18T04:08:42;-3.20;83.10
47590;DHT22;33316;52.298;9.056;2022-12-18T04:11:09;-3.20;83.10
47590;DHT22;33316;52.298;9.056;2022-12-18T04:13:37;-3.10;83.20
47590;DHT22;33316;52.298;9.056;2022-12-18T04:16:05;-3.20;83.20
47590;DHT22;33316;52.298;9.056;2022-12-18T04:18:34;-3.10;83.30
47590;DHT22;33316;52.298;9.056;2022-12-18T04:21:01;-3.10;83.40
47590;DHT22;33316;52.298;9.056;2022-12-18T04:23:28;-3.10;83.40
47590;DHT22;33316;52.298;9.056;2022-12-18T04:25:55;-3.10;83.40
47590;DHT22;33316;52.298;9.056;2022-12-18T04:28:22;-3.10;83.40
47590;DHT22;33316;52.298;9.056;2022-12-18T04:30:49;-3.10;83.50
47590;DHT22;33316;52.298;9.056;2022-12-18T04:33:16;-3.10;83.50
47590;DHT22;33316;52.298;9.056;2022-12-18T04:35:44;-3.10;84.30
47590;DHT22;33316;52.298;9.056;2022-12-18T04:38:11;-3.10;83.50
47590;DHT22;33316;52.298;9.056;2022-12-18T04:40:38;-3.10;83.60
47590;DHT22;33316;52.298;9.056;2022-12-18T04:43:05;-3.00;83.60
47590;DHT22;33316;52.298;9.056;2022-12-18T04:45:32;-3.00;83.60
47590;DHT22;33316;52.298;9.056;2022-12-18T04:48:00;-3.00;83.60
47590;DHT22;33316;52.298;9.056;2022-12-18T04:50:27;-3.00;83.60
47590;DHT22;33316;52.298;9.056;2022-12-18T04:52:56;-3.00;83.60
47590;DHT22;33316;52.298;9.056;2022-12-18T04:55:24;-3.00;83.60
47590;DHT22;33316;52.298;9.056;2022-12-18T04:57:51;-3.00;83.60
47590;DHT22;33316;52.298;9.056;2022-12-18T05:00:18;-3.00;83.60
47590;DHT22;33316;52.298;9.056;2022-12-18T05:02:45;-3.00;83.70
47590;DHT22;33316;52.298;9.056;2022-12-18T05:05:12;-3.00;83.70
47590;DHT22;33316;52.298;9.056;2022-12-18T05:07:38;-3.00;83.70
47590;DHT22;33316;52.298;9.056;2022-12-18T05:10:07;-3.00;83.80
47590;DHT22;33316;52.298;9.056;2022-12-18T05:12:34;-3.00;83.80
47590;DHT22;33316;52.298;9.056;2022-12-18T05:15:22;-3.00;83.90
47590;DHT22;33316;52.298;9.056;2022-12-18T05:17:49;-3.00;83.90
47590;DHT22;33316;52.298;9.056;2022-12-18T05:20:16;-3.00;83.90
47590;DHT22;33316;52.298;9.056;2022-12-18T05:22:43;-2.90;83.90
47590;DHT22;33316;52.298;9.056;2022-12-18T05:25:12;-2.90;84.00
47590;DHT22;33316;52.298;9.056;2022-12-18T05:27:38;-2.90;84.00
47590;DHT22;33316;52.298;9.056;2022-12-18T05:30:06;-2.90;83.90
47590;DHT22;33316;52.298;9.056;2022-12-18T05:32:33;-2.90;83.90
47590;DHT22;33316;52.298;9.056;2022-12-18T05:35:00;-2.90;83.90
47590;DHT22;33316;52.298;9.056;2022-12-18T05:37:27;-2.90;84.00
47590;DHT22;33316;52.298;9.056;2022-12-18T05:39:54;-2.80;84.10
47590;DHT22;33316;52.298;9.056;2022-12-18T05:42:22;-2.90;84.10
47590;DHT22;33316;52.298;9.056;2022-12-18T05:44:49;-2.90;84.00
47590;DHT22;33316;52.298;9.056;2022-12-18T05:47:16;-2.90;84.00
47590;DHT22;33316;52.298;9.056;2022-12-18T05:49:43;-2.80;84.10
47590;DHT22;33316;52.298;9.056;2022-12-18T05:52:10;-2.80;84.10
47590;DHT22;33316;52.298;9.056;2022-12-18T05:54:37;-2.80;84.20
47590;DHT22;33316;52.298;9.056;2022-12-18T05:57:04;-2.80;84.10
47590;DHT22;33316;52.298;9.056;2022-12-18T05:59:32;-2.80;84.10
47590;DHT22;33316;52.298;9.056;2022-12-18T06:01:59;-2.80;84.10
47590;DHT22;33316;52.298;9.056;2022-12-18T06:04:27;-2.80;84.80
47590;DHT22;33316;52.298;9.056;2022-12-18T06:06:54;-2.80;84.10
47590;DHT22;33316;52.298;9.056;2022-12-18T06:09:21;-2.80;84.00
47590;DHT22;33316;52.298;9.056;2022-12-18T06:11:48;-2.80;84.00
47590;DHT22;33316;52.298;9.056;2022-12-18T06:14:14;-2.80;84.10
47590;DHT22;33316;52.298;9.056;2022-12-18T06:16:44;-2.80;84.00
47590;DHT22;33316;52.298;9.056;2022-12-18T06:19:14;-2.80;84.00
47590;DHT22;33316;52.298;9.056;2022-12-18T06:21:41;-2.80;84.00
47590;DHT22;33316;52.298;9.056;2022-12-18T06:24:08;-2.80;84.10
47590;DHT22;33316;52.298;9.056;2022-12-18T06:26:37;-2.80;84.10
47590;DHT22;33316;52.298;9.056;2022-12-18T06:29:04;-2.80;84.10
47590;DHT22;33316;52.298;9.056;2022-12-18T06:31:31;-2.80;84.10
47590;DHT22;33316;52.298;9.056;2022-12-18T06:34:02;-2.80;84.00
47590;DHT22;33316;52.298;9.056;2022-12-18T06:36:29;-2.80;84.00
47590;DHT22;33316;52.298;9.056;2022-12-18T06:38:57;-2.80;84.00
47590;DHT22;33316;52.298;9.056;2022-12-18T06:41:24;-2.80;84.10
47590;DHT22;33316;52.298;9.056;2022-12-18T06:43:51;-2.80;84.00
47590;DHT22;33316;52.298;9.056;2022-12-18T06:46:18;-2.80;84.00
47590;DHT22;33316;52.298;9.056;2022-12-18T06:48:47;-2.80;84.00
47590;DHT22;33316;52.298;9.056;2022-12-18T06:51:18;-2.80;84.00
47590;DHT22;33316;52.298;9.056;2022-12-18T06:53:45;-2.80;84.00
47590;DHT22;33316;52.298;9.056;2022-12-18T06:56:12;-2.80;84.00
47590;DHT22;33316;52.298;9.056;2022-12-18T06:58:39;-2.70;84.00
47590;DHT22;33316;52.298;9.056;2022-12-18T07:01:08;-2.70;84.00
47590;DHT22;33316;52.298;9.056;2022-12-18T07:03:35;-2.70;83.90
47590;DHT22;33316;52.298;9.056;2022-12-18T07:06:02;-2.70;83.90
47590;DHT22;33316;52.298;9.056;2022-12-18T07:08:31;-2.80;83.90
47590;DHT22;33316;52.298;9.056;2022-12-18T07:10:58;-2.80;83.80
47590;DHT22;33316;52.298;9.056;2022-12-18T07:13:25;-2.80;83.80
47590;DHT22;33316;52.298;9.056;2022-12-18T07:15:52;-2.80;83.90
47590;DHT22;33316;52.298;9.056;2022-12-18T07:18:19;-2.70;83.90
47590;DHT22;33316;52.298;9.056;2022-12-18T07:20:45;-2.80;83.80
47590;DHT22;33316;52.298;9.056;2022-12-18T07:23:12;-2.80;84.50
47590;DHT22;33316;52.298;9.056;2022-12-18T07:25:40;-2.80;83.80
47590;DHT22;33316;52.298;9.056;2022-12-18T07:28:07;-2.80;83.80
47590;DHT22;33316;52.298;9.056;2022-12-18T07:30:37;-2.80;83.80
47590;DHT22;33316;52.298;9.056;2022-12-18T07:33:04;-2.80;83.70
47590;DHT22;33316;52.298;9.056;2022-12-18T07:35:30;-2.80;83.70
47590;DHT22;33316;52.298;9.056;2022-12-18T07:38:01;-2.80;83.70
47590;DHT22;33316;52.298;9.056;2022-12-18T07:40:28;-2.80;83.70
47590;DHT22;33316;52.298;9.056;2022-12-18T07:42:56;-2.80;83.70
47590;DHT22;33316;52.298;9.056;2022-12-18T07:45:23;-2.80;83.70
47590;DHT22;33316;52.298;9.056;2022-12-18T07:47:50;-2.80;83.80
47590;DHT22;33316;52.298;9.056;2022-12-18T07:50:17;-2.80;83.80
47590;DHT22;33316;52.298;9.056;2022-12-18T07:52:44;-2.80;83.80
47590;DHT22;33316;52.298;9.056;2022-12-18T07:55:11;-2.70;83.80
47590;DHT22;33316;52.298;9.056;2022-12-18T07:57:38;-2.70;83.90
47590;DHT22;33316;52.298;9.056;2022-12-18T08:00:07;-2.70;83.90
47590;DHT22;33316;52.298;9.056;2022-12-18T08:02:34;-2.70;83.90
47590;DHT22;33316;52.298;9.056;2022-12-18T08:05:01;-2.70;83.80
47590;DHT22;33316;52.298;9.056;2022-12-18T08:07:28;-2.70;83.90
47590;DHT22;33316;52.298;9.056;2022-12-18T08:09:54;-2.60;83.90
47590;DHT22;33316;52.298;9.056;2022-12-18T08:12:21;-2.60;83.90
47590;DHT22;33316;52.298;9.056;2022-12-18T08:14:48;-2.60;83.80
47590;DHT22;33316;52.298;9.056;2022-12-18T08:17:16;-2.60;83.80
47590;DHT22;33316;52.298;9.056;2022-12-18T08:19:43;-2.50;83.80
47590;DHT22;33316;52.298;9.056;2022-12-18T08:22:12;-2.50;83.70
47590;DHT22;33316;52.298;9.056;2022-12-18T08:24:39;-2.50;83.60
47590;DHT22;33316;52.298;9.056;2022-12-18T08:27:06;-2.40;83.70
47590;DHT22;33316;52.298;9.056;2022-12-18T08:29:33;-2.40;83.60
47590;DHT22;33316;52.298;9.056;2022-12-18T08:32:00;-2.40;83.60
47590;DHT22;33316;52.298;9.056;2022-12-18T08:34:28;-2.40;83.50
47590;DHT22;33316;52.298;9.056;2022-12-18T08:36:55;-2.30;84.30
47590;DHT22;33316;52.298;9.056;2022-12-18T08:39:22;-2.30;83.50
47590;DHT22;33316;52.298;9.056;2022-12-18T08:41:48;-2.30;83.40
47590;DHT22;33316;52.298;9.056;2022-12-18T08:44:29;-2.20;83.40
47590;DHT22;33316;52.298;9.056;2022-12-18T08:47:06;-2.10;83.40
47590;DHT22;33316;52.298;9.056;2022-12-18T08:49:35;-2.10;83.30
47590;DHT22;33316;52.298;9.056;2022-12-18T08:52:02;-2.00;83.20
47590;DHT22;33316;52.298;9.056;2022-12-18T08:54:29;-2.00;83.00
47590;DHT22;33316;52.298;9.056;2022-12-18T08:56:56;-2.00;83.00
47590;DHT22;33316;52.298;9.056;2022-12-18T08:59:23;-2.00;83.70
47590;DHT22;33316;52.298;9.056;2022-12-18T09:01:49;-1.90;82.90
47590;DHT22;33316;52.298;9.056;2022-12-18T09:04:16;-1.80;82.90
47590;DHT22;33316;52.298;9.056;2022-12-18T09:06:45;-1.80;82.80
47590;DHT22;33316;52.298;9.056;2022-12-18T09:09:12;-1.70;82.60
47590;DHT22;33316;52.298;9.056;2022-12-18T09:11:39;-1.60;82.40
47590;DHT22;33316;52.298;9.056;2022-12-18T09:14:06;-1.50;82.40
47590;DHT22;33316;52.298;9.056;2022-12-18T09:16:33;-1.50;82.20
47590;DHT22;33316;52.298;9.056;2022-12-18T09:19:02;-1.40;82.10
47590;DHT22;33316;52.298;9.056;2022-12-18T09:21:31;-1.30;81.90
47590;DHT22;33316;52.298;9.056;2022-12-18T09:24:00;-1.30;81.70
47590;DHT22;33316;52.298;9.056;2022-12-18T09:26:27;-1.20;81.60
47590;DHT22;33316;52.298;9.056;2022-12-18T09:28:54;-1.10;82.30
47590;DHT22;33316;52.298;9.056;2022-12-18T09:31:22;-1.10;81.40
47590;DHT22;33316;52.298;9.056;2022-12-18T09:33:49;-1.10;82.10
47590;DHT22;33316;52.298;9.056;2022-12-18T09:36:17;-1.00;82.00
47590;DHT22;33316;52.298;9.056;2022-12-18T09:38:45;-1.00;81.10
47590;DHT22;33316;52.298;9.056;2022-12-18T09:41:24;-0.90;81.20
47590;DHT22;33316;52.298;9.056;2022-12-18T09:43:56;-0.90;81.20
47590;DHT22;33316;52.298;9.056;2022-12-18T09:46:26;-0.90;81.20
47590;DHT22;33316;52.298;9.056;2022-12-18T09:48:57;-0.80;81.20
47590;DHT22;33316;52.298;9.056;2022-12-18T09:51:28;-0.80;81.20
47590;DHT22;33316;52.298;9.056;2022-12-18T09:53:59;-0.70;81.20
47590;DHT22;33316;52.298;9.056;2022-12-18T09:56:29;-0.70;81.20
47590;DHT22;33316;52.298;9.056;2022-12-18T09:58:59;-0.70;81.10
47590;DHT22;33316;52.298;9.056;2022-12-18T10:01:27;-0.60;81.10
47590;DHT22;33316;52.298;9.056;2022-12-18T10:03:55;-0.60;80.90
47590;DHT22;33316;52.298;9.056;2022-12-18T10:06:26;-0.60;80.70
47590;DHT22;33316;52.298;9.056;2022-12-18T10:08:58;-0.50;81.40
47590;DHT22;33316;52.298;9.056;2022-12-18T10:11:34;-0.50;80.30
47590;DHT22;33316;52.298;9.056;2022-12-18T10:14:09;-0.50;80.20
47590;DHT22;33316;52.298;9.056;2022-12-18T10:16:46;-0.40;80.10
47590;DHT22;33316;52.298;9.056;2022-12-18T10:19:26;-0.40;80.10
47590;DHT22;33316;52.298;9.056;2022-12-18T10:22:01;-0.40;79.60
47590;DHT22;33316;52.298;9.056;2022-12-18T10:24:35;-0.30;79.70
47590;DHT22;33316;52.298;9.056;2022-12-18T10:27:13;-0.30;79.30
47590;DHT22;33316;52.298;9.056;2022-12-18T10:29:42;-0.20;79.20
47590;DHT22;33316;52.298;9.056;2022-12-18T10:32:14;-0.20;79.20
47590;DHT22;33316;52.298;9.056;2022-12-18T10:34:44;-0.20;79.00
47590;DHT22;33316;52.298;9.056;2022-12-18T10:37:15;-0.10;79.20
47590;DHT22;33316;52.298;9.056;2022-12-18T10:39:43;-0.10;79.10
47590;DHT22;33316;52.298;9.056;2022-12-18T10:42:17;0.00;78.80
47590;DHT22;33316;52.298;9.056;2022-12-18T10:44:45;0.00;78.40
47590;DHT22;33316;52.298;9.056;2022-12-18T10:47:15;0.10;78.30
47590;DHT22;33316;52.298;9.056;2022-12-18T10:49:49;0.10;78.10
47590;DHT22;33316;52.298;9.056;2022-12-18T10:52:19;0.10;77.80
47590;DHT22;33316;52.298;9.056;2022-12-18T10:54:50;0.20;77.70
47590;DHT22;33316;52.298;9.056;2022-12-18T10:57:31;0.20;77.60
47590;DHT22;33316;52.298;9.056;2022-12-18T10:59:59;0.30;77.50
47590;DHT22;33316;52.298;9.056;2022-12-18T11:02:28;0.30;77.50
47590;DHT22;33316;52.298;9.056;2022-12-18T11:05:09;0.30;77.50
47590;DHT22;33316;52.298;9.056;2022-12-18T11:07:50;0.40;77.40
47590;DHT22;33316;52.298;9.056;2022-12-18T11:10:21;0.40;77.20
47590;DHT22;33316;52.298;9.056;2022-12-18T11:12:49;0.40;77.20
47590;DHT22;33316;52.298;9.056;2022-12-18T11:15:21;0.40;77.10
47590;DHT22;33316;52.298;9.056;2022-12-18T11:17:51;0.50;76.90
47590;DHT22;33316;52.298;9.056;2022-12-18T11:20:27;0.50;76.80
47590;DHT22;33316;52.298;9.056;2022-12-18T11:22:57;0.50;76.70
47590;DHT22;33316;52.298;9.056;2022-12-18T11:25:25;0.50;76.30
47590;DHT22;33316;52.298;9.056;2022-12-18T11:27:55;0.50;76.30
47590;DHT22;33316;52.298;9.056;2022-12-18T11:30:25;0.50;76.00
47590;DHT22;33316;52.298;9.056;2022-12-18T11:32:55;0.50;76.20
47590;DHT22;33316;52.298;9.056;2022-12-18T11:35:40;0.50;75.60
47590;DHT22;33316;52.298;9.056;2022-12-18T11:38:18;0.50;75.70
47590;DHT22;33316;52.298;9.056;2022-12-18T11:40:53;0.50;75.60
47590;DHT22;33316;52.298;9.056;2022-12-18T11:43:26;0.50;75.90
47590;DHT22;33316;52.298;9.056;2022-12-18T11:45:58;0.50;76.00
47590;DHT22;33316;52.298;9.056;2022-12-18T11:48:29;0.50;75.60
47590;DHT22;33316;52.298;9.056;2022-12-18T11:50:59;0.50;75.60
47590;DHT22;33316;52.298;9.056;2022-12-18T11:53:28;0.60;75.80
47590;DHT22;33316;52.298;9.056;2022-12-18T11:56:05;0.60;76.40
47590;DHT22;33316;52.298;9.056;2022-12-18T11:58:46;0.60;75.30
47590;DHT22;33316;52.298;9.056;2022-12-18T12:01:21;0.60;75.50
47590;DHT22;33316;52.298;9.056;2022-12-18T12:04:16;0.60;75.50
47590;DHT22;33316;52.298;9.056;2022-12-18T12:06:54;0.60;75.00
47590;DHT22;33316;52.298;9.056;2022-12-18T12:09:27;0.60;74.90
47590;DHT22;33316;52.298;9.056;2022-12-18T12:12:22;0.60;74.60
47590;DHT22;33316;52.298;9.056;2022-12-18T12:14:59;0.60;74.60
47590;DHT22;33316;52.298;9.056;2022-12-18T12:17:34;0.60;74.30
47590;DHT22;33316;52.298;9.056;2022-12-18T12:20:08;0.60;74.60
47590;DHT22;33316;52.298;9.056;2022-12-18T12:22:44;0.60;74.30
47590;DHT22;33316;52.298;9.056;2022-12-18T12:25:25;0.60;74.40
47590;DHT22;33316;52.298;9.056;2022-12-18T12:28:02;0.60;74.30
47590;DHT22;33316;52.298;9.056;2022-12-18T12:30:41;0.60;74.20
47590;DHT22;33316;52.298;9.056;2022-12-18T12:33:21;0.60;73.80
47590;DHT22;33316;52.298;9.056;2022-12-18T12:35:55;0.60;73.70
47590;DHT22;33316;52.298;9.056;2022-12-18T12:38:28;0.60;73.60
47590;DHT22;33316;52.298;9.056;2022-12-18T12:41:00;0.70;73.50
47590;DHT22;33316;52.298;9.056;2022-12-18T12:43:35;0.70;73.40
47590;DHT22;33316;52.298;9.056;2022-12-18T12:46:04;0.70;73.20
47590;DHT22;33316;52.298;9.056;2022-12-18T12:48:41;0.70;73.30
47590;DHT22;33316;52.298;9.056;2022-12-18T12:51:14;0.70;73.70
47590;DHT22;33316;52.298;9.056;2022-12-18T12:53:42;0.70;73.00
47590;DHT22;33316;52.298;9.056;2022-12-18T12:56:11;0.70;72.70
47590;DHT22;33316;52.298;9.056;2022-12-18T12:58:45;0.70;72.90
47590;DHT22;33316;52.298;9.056;2022-12-18T13:01:22;0.70;72.70
47590;DHT22;33316;52.298;9.056;2022-12-18T13:04:00;0.80;72.80
47590;DHT22;33316;52.298;9.056;2022-12-18T13:06:39;0.80;72.70
47590;DHT22;33316;52.298;9.056;2022-12-18T13:09:06;0.80;72.70
47590;DHT22;33316;52.298;9.056;2022-12-18T13:11:38;0.80;72.40
47590;DHT22;33316;52.298;9.056;2022-12-18T13:14:34;0.70;72.30
47590;DHT22;33316;52.298;9.056;2022-12-18T13:17:27;0.80;72.40
47590;DHT22;33316;52.298;9.056;2022-12-18T13:20:08;0.80;72.60
47590;DHT22;33316;52.298;9.056;2022-12-18T13:22:35;0.80;72.80
47590;DHT22;33316;52.298;9.056;2022-12-18T13:25:04;0.80;72.60
47590;DHT22;33316;52.298;9.056;2022-12-18T13:28:14;0.80;73.10
47590;DHT22;33316;52.298;9.056;2022-12-18T13:30:54;0.80;73.30
47590;DHT22;33316;52.298;9.056;2022-12-18T13:33:41;0.80;73.30
47590;DHT22;33316;52.298;9.056;2022-12-18T13:36:26;0.80;73.20
47590;DHT22;33316;52.298;9.056;2022-12-18T13:39:25;0.80;73.20
47590;DHT22;33316;52.298;9.056;2022-12-18T13:42:31;0.80;72.90
47590;DHT22;33316;52.298;9.056;2022-12-18T13:45:44;0.80;72.70
47590;DHT22;33316;52.298;9.056;2022-12-18T13:48:21;0.80;72.70
47590;DHT22;33316;52.298;9.056;2022-12-18T13:51:00;0.80;73.00
47590;DHT22;33316;52.298;9.056;2022-12-18T13:53:33;0.80;73.00
47590;DHT22;33316;52.298;9.056;2022-12-18T13:56:02;0.80;72.80
47590;DHT22;33316;52.298;9.056;2022-12-18T13:58:29;0.80;72.80
47590;DHT22;33316;52.298;9.056;2022-12-18T14:00:55;0.80;72.70
47590;DHT22;33316;52.298;9.056;2022-12-18T14:03:26;0.80;72.00
47590;DHT22;33316;52.298;9.056;2022-12-18T14:05:56;0.80;72.30
47590;DHT22;33316;52.298;9.056;2022-12-18T14:08:27;0.80;72.40
47590;DHT22;33316;52.298;9.056;2022-12-18T14:10:56;0.80;72.40
47590;DHT22;33316;52.298;9.056;2022-12-18T14:13:26;0.80;73.10
47590;DHT22;33316;52.298;9.056;2022-12-18T14:15:55;0.80;71.90
47590;DHT22;33316;52.298;9.056;2022-12-18T14:18:24;0.80;71.80
47590;DHT22;33316;52.298;9.056;2022-12-18T14:20:54;0.80;72.10
47590;DHT22;33316;52.298;9.056;2022-12-18T14:23:32;0.80;72.00
47590;DHT22;33316;52.298;9.056;2022-12-18T14:25:59;0.80;72.00
47590;DHT22;33316;52.298;9.056;2022-12-18T14:28:26;0.80;72.10
47590;DHT22;33316;52.298;9.056;2022-12-18T14:30:54;0.80;72.20
47590;DHT22;33316;52.298;9.056;2022-12-18T14:33:23;0.80;72.20
47590;DHT22;33316;52.298;9.056;2022-12-18T14:35:56;0.80;72.20
47590;DHT22;33316;52.298;9.056;2022-12-18T14:38:27;0.80;71.90
47590;DHT22;33316;52.298;9.056;2022-12-18T14:41:00;0.80;71.90
47590;DHT22;33316;52.298;9.056;2022-12-18T14:43:29;0.80;71.90
47590;DHT22;33316;52.298;9.056;2022-12-18T14:45:56;0.80;72.00
47590;DHT22;33316;52.298;9.056;2022-12-18T14:48:35;0.80;72.00
47590;DHT22;33316;52.298;9.056;2022-12-18T14:51:04;0.80;71.50
47590;DHT22;33316;52.298;9.056;2022-12-18T14:53:35;0.80;71.60
47590;DHT22;33316;52.298;9.056;2022-12-18T14:56:14;0.80;71.40
47590;DHT22;33316;52.298;9.056;2022-12-18T14:58:45;0.80;72.60
47590;DHT22;33316;52.298;9.056;2022-12-18T15:01:21;0.80;72.10
47590;DHT22;33316;52.298;9.056;2022-12-18T15:03:50;0.80;72.50
47590;DHT22;33316;52.298;9.056;2022-12-18T15:06:23;0.80;72.40
47590;DHT22;33316;52.298;9.056;2022-12-18T15:08:51;0.80;72.30
47590;DHT22;33316;52.298;9.056;2022-12-18T15:11:28;0.80;73.10
47590;DHT22;33316;52.298;9.056;2022-12-18T15:13:57;0.80;71.90
47590;DHT22;33316;52.298;9.056;2022-12-18T15:16:24;0.80;72.20
47590;DHT22;33316;52.298;9.056;2022-12-18T15:18:52;0.80;72.30
47590;DHT22;33316;52.298;9.056;2022-12-18T15:21:20;0.80;72.00
47590;DHT22;33316;52.298;9.056;2022-12-18T15:23:49;0.80;71.60
47590;DHT22;33316;52.298;9.056;2022-12-18T15:26:18;0.70;71.60
47590;DHT22;33316;52.298;9.056;2022-12-18T15:28:48;0.70;71.40
47590;DHT22;33316;52.298;9.056;2022-12-18T15:31:23;0.70;71.50
47590;DHT22;33316;52.298;9.056;2022-12-18T15:34:08;0.70;71.10
47590;DHT22;33316;52.298;9.056;2022-12-18T15:36:36;0.70;71.20
47590;DHT22;33316;52.298;9.056;2022-12-18T15:39:04;0.70;71.00
47590;DHT22;33316;52.298;9.056;2022-12-18T15:41:32;0.70;71.10
47590;DHT22;33316;52.298;9.056;2022-12-18T15:44:01;0.70;71.00
47590;DHT22;33316;52.298;9.056;2022-12-18T15:46:27;0.70;70.40
47590;DHT22;33316;52.298;9.056;2022-12-18T15:48:55;0.70;70.40
47590;DHT22;33316;52.298;9.056;2022-12-18T15:51:24;0.70;70.60
47590;DHT22;33316;52.298;9.056;2022-12-18T15:53:54;0.70;70.70
47590;DHT22;33316;52.298;9.056;2022-12-18T15:56:21;0.70;70.80